Time;durP1;ratioP1;P1;durP2;ratioP2;P2;SDS_P1;SDS_P2;PMS_P1;PMS_P2;Temp;Humidity;BMP_temperature;BMP_pressure;BME280_temperature;BME280_humidity;BME280_pressure;Samples;Min_cycle;Max_cycle;Signal;HPM_P1;HPM_P2
2022/11/05 03:44:26;;;;;;;12.60;7.82;;;7.40;99.90;;;;;;6070719;22;1383416;-58
2022/11/05 03:46:55;;;;;;;9.38;7.72;;;7.10;99.90;;;;;;6096836;23;20163;-58
2022/11/05 03:49:26;;;;;;;9.20;7.80;;;7.10;99.90;;;;;;6097316;23;20162;-58
2022/11/05 03:52:16;;;;;;;13.48;7.95;;;7.00;99.90;;;;;;6122880;23;20213;-58
2022/11/05 03:54:42;;;;;;;12.00;7.65;;;7.10;99.90;;;;;;6122801;23;20175;-58
2022/11/05 03:57:17;;;;;;;9.90;7.43;;;7.10;99.90;;;;;;6122834;23;20153;-58
2022/11/05 03:59:46;;;;;;;12.02;7.90;;;7.20;99.90;;;;;;6123151;23;20216;-56
2022/11/05 04:02:13;;;;;;;10.35;7.50;;;7.20;99.90;;;;;;6123270;23;20600;-56
2022/11/05 04:04:40;;;;;;;11.90;7.55;;;7.20;99.90;;;;;;6097292;23;20156;-58
2022/11/05 04:15:18;;;;;;;11.18;7.43;;;7.10;99.90;;;;;;6101171;23;20203;-58
2022/11/05 04:17:44;;;;;;;9.23;7.28;;;7.00;99.90;;;;;;6122844;23;20161;-58
2022/11/05 04:25:43;;;;;;;12.23;7.32;;;7.00;99.90;;;;;;6122789;23;20217;-56
2022/11/05 04:28:09;;;;;;;11.15;7.80;;;7.10;99.90;;;;;;6122499;23;20205;-58
2022/11/05 04:30:35;;;;;;;13.63;8.57;;;7.20;99.90;;;;;;6097301;23;20196;-58
2022/11/05 04:33:06;;;;;;;9.35;7.85;;;7.40;99.90;;;;;;6122972;23;20500;-58
2022/11/05 04:35:36;;;;;;;15.10;8.30;;;7.50;99.90;;;;;;6123026;23;20144;-58
2022/11/05 04:38:03;;;;;;;9.52;8.32;;;7.50;99.90;;;;;;6123194;23;20142;-56
2022/11/05 04:40:29;;;;;;;11.77;7.90;;;7.50;99.90;;;;;;6122970;23;20153;-58
2022/11/05 04:42:55;;;;;;;10.98;7.90;;;7.50;99.90;;;;;;6122774;23;20229;-59
2022/11/05 04:45:26;;;;;;;12.25;7.82;;;7.50;99.90;;;;;;6123170;23;20168;-58
2022/11/05 04:47:52;;;;;;;10.73;7.78;;;7.60;99.90;;;;;;6122916;23;20496;-58
2022/11/05 04:50:17;;;;;;;11.95;7.75;;;7.50;99.90;;;;;;6097222;23;20602;-58
2022/11/05 04:52:43;;;;;;;11.98;7.80;;;7.50;99.90;;;;;;6122918;23;20153;-58
2022/11/05 04:55:09;;;;;;;10.30;7.28;;;7.50;99.90;;;;;;6097185;23;20176;-57
2022/11/05 04:57:35;;;;;;;13.30;7.95;;;7.40;99.90;;;;;;6122593;23;20184;-58
2022/11/05 05:00:01;;;;;;;9.38;7.25;;;7.40;99.90;;;;;;6122860;23;20145;-58
2022/11/05 05:02:27;;;;;;;11.70;7.47;;;7.40;99.90;;;;;;6097014;23;20168;-57
2022/11/05 05:04:53;;;;;;;12.50;6.85;;;7.40;99.90;;;;;;6122851;23;20236;-58
2022/11/05 05:07:19;;;;;;;7.95;7.00;;;7.30;99.90;;;;;;6122764;23;20645;-58
2022/11/05 05:09:44;;;;;;;11.63;6.90;;;7.20;99.90;;;;;;6122840;23;20232;-58
2022/11/05 05:12:10;;;;;;;10.75;6.80;;;7.10;99.90;;;;;;6097035;23;20164;-58
2022/11/05 05:14:36;;;;;;;11.10;7.88;;;7.00;99.90;;;;;;6122485;23;20574;-56
2022/11/05 05:17:01;;;;;;;11.52;6.90;;;6.90;99.90;;;;;;6122424;23;20158;-56
2022/11/05 05:19:27;;;;;;;10.15;7.03;;;6.90;99.90;;;;;;6096828;23;20184;-56
2022/11/05 05:21:53;;;;;;;13.77;7.68;;;7.00;99.90;;;;;;6122743;23;20164;-58
2022/11/05 05:24:20;;;;;;;13.32;7.07;;;7.00;99.90;;;;;;6096861;23;20472;-56
2022/11/05 05:26:49;;;;;;;10.82;7.13;;;7.00;99.90;;;;;;6122386;23;20626;-56
2022/11/05 05:29:16;;;;;;;12.77;7.50;;;7.00;99.90;;;;;;6122009;23;20178;-58
2022/11/05 05:31:42;;;;;;;8.82;6.82;;;6.90;99.90;;;;;;6122705;23;20645;-56
2022/11/05 05:34:11;;;;;;;10.65;7.13;;;6.90;99.90;;;;;;6122722;23;20152;-58
2022/11/05 05:36:36;;;;;;;8.30;6.72;;;6.90;99.90;;;;;;6122381;23;20153;-58
2022/11/05 05:39:05;;;;;;;10.68;6.82;;;6.90;99.90;;;;;;6122880;23;20158;-58
2022/11/05 05:41:31;;;;;;;11.30;7.30;;;6.90;99.90;;;;;;6122626;23;20150;-58
2022/11/05 05:43:57;;;;;;;9.77;7.03;;;6.80;99.90;;;;;;6096575;23;20265;-58
2022/11/05 05:46:23;;;;;;;10.32;7.28;;;6.80;99.90;;;;;;6122717;23;20444;-58
2022/11/05 05:48:50;;;;;;;11.25;7.13;;;6.80;99.90;;;;;;6122769;23;20212;-58
2022/11/05 05:51:17;;;;;;;13.80;7.65;;;6.70;99.90;;;;;;6122589;23;20204;-58
2022/11/05 05:53:43;;;;;;;12.40;7.85;;;6.80;99.90;;;;;;6096862;23;20160;-58
2022/11/05 05:56:09;;;;;;;14.20;7.60;;;6.80;99.90;;;;;;6122765;23;20198;-58
2022/11/05 05:58:37;;;;;;;12.63;8.35;;;6.80;99.90;;;;;;6096994;23;20185;-58
2022/11/05 06:01:06;;;;;;;15.25;8.05;;;6.90;99.90;;;;;;6122630;23;20278;-58
2022/11/05 06:03:32;;;;;;;10.82;8.77;;;7.00;99.90;;;;;;6122633;23;20232;-56
2022/11/05 06:06:06;;;;;;;11.02;8.50;;;7.00;99.90;;;;;;6122492;23;20176;-53
2022/11/05 06:08:32;;;;;;;13.32;8.55;;;7.10;99.90;;;;;;6122347;23;20191;-54
2022/11/05 06:10:58;;;;;;;14.45;9.18;;;7.10;99.90;;;;;;6096675;23;20160;-53
2022/11/05 06:13:24;;;;;;;15.55;10.30;;;7.00;99.90;;;;;;6122482;23;20196;-56
2022/11/05 06:15:50;;;;;;;12.95;9.90;;;6.90;99.90;;;;;;6122177;23;20153;-52
2022/11/05 06:18:16;;;;;;;14.15;9.60;;;7.00;99.90;;;;;;6122321;23;20164;-56
2022/11/05 06:20:42;;;;;;;16.92;9.35;;;7.10;99.90;;;;;;6122059;23;20230;-56
2022/11/05 06:23:08;;;;;;;11.98;9.77;;;7.10;99.90;;;;;;6122384;23;20228;-55
2022/11/05 06:25:34;;;;;;;10.90;9.43;;;7.10;99.90;;;;;;6122412;23;20157;-56
2022/11/05 06:28:00;;;;;;;15.70;9.38;;;7.10;99.90;;;;;;6122166;23;20173;-56
2022/11/05 06:30:25;;;;;;;12.30;9.52;;;7.10;99.90;;;;;;6072508;23;20218;-56
2022/11/05 06:32:51;;;;;;;12.55;9.65;;;7.10;99.90;;;;;;6096040;23;20149;-56
2022/11/05 06:35:16;;;;;;;15.13;9.82;;;6.90;99.90;;;;;;6121987;23;20636;-56
2022/11/05 06:37:42;;;;;;;11.15;8.32;;;6.90;99.90;;;;;;6121649;23;20665;-53
2022/11/05 06:40:08;;;;;;;10.68;8.60;;;6.90;99.90;;;;;;6121697;23;20152;-56
2022/11/05 06:42:34;;;;;;;17.55;9.52;;;6.90;99.90;;;;;;6121994;23;20153;-56
2022/11/05 06:45:00;;;;;;;13.93;9.20;;;6.80;99.90;;;;;;6123068;23;20169;-55
2022/11/05 06:47:26;;;;;;;12.23;8.60;;;6.80;99.90;;;;;;6122914;23;20181;-56
2022/11/05 06:49:52;;;;;;;13.95;9.05;;;6.70;99.90;;;;;;6123285;23;20157;-56
2022/11/05 06:52:17;;;;;;;16.70;9.50;;;6.50;99.90;;;;;;6123316;23;20178;-56
2022/11/05 06:54:43;;;;;;;12.60;8.95;;;6.50;99.90;;;;;;6097454;23;20237;-55
2022/11/05 06:57:10;;;;;;;14.10;9.63;;;6.60;99.90;;;;;;6123201;23;20185;-56
2022/11/05 06:59:38;;;;;;;11.70;9.32;;;6.60;99.90;;;;;;6123241;23;20156;-55
2022/11/05 07:02:04;;;;;;;15.20;10.38;;;6.60;99.90;;;;;;6123264;23;20180;-54
2022/11/05 07:04:30;;;;;;;12.82;9.50;;;6.70;99.90;;;;;;6122985;23;20522;-56
2022/11/05 07:06:59;;;;;;;17.08;11.02;;;6.70;99.90;;;;;;6123500;23;20236;-56
2022/11/05 07:09:24;;;;;;;13.10;10.07;;;6.70;99.90;;;;;;6123270;23;20164;-56
2022/11/05 07:11:50;;;;;;;16.42;10.85;;;6.70;99.90;;;;;;6122907;23;20607;-55
2022/11/05 07:14:15;;;;;;;16.63;10.40;;;6.70;99.90;;;;;;6123387;23;20572;-56
2022/11/05 07:16:41;;;;;;;15.30;9.82;;;6.70;99.90;;;;;;6123212;23;20153;-55
2022/11/05 07:19:07;;;;;;;16.02;10.68;;;6.70;99.90;;;;;;6123137;23;20236;-56
2022/11/05 07:21:32;;;;;;;15.10;10.10;;;6.70;99.90;;;;;;6097254;23;20154;-55
2022/11/05 07:23:58;;;;;;;17.10;10.75;;;6.80;99.90;;;;;;6072843;23;20157;-55
2022/11/05 07:26:24;;;;;;;17.42;11.18;;;6.80;99.90;;;;;;6095121;23;20478;-55
2022/11/05 07:28:49;;;;;;;18.95;10.93;;;6.80;99.90;;;;;;6118845;23;20557;-54
2022/11/05 07:31:15;;;;;;;16.42;10.68;;;6.80;99.90;;;;;;6120332;23;20157;-54
2022/11/05 07:33:41;;;;;;;13.95;10.93;;;6.80;99.90;;;;;;6095409;23;20162;-55
2022/11/05 07:36:07;;;;;;;16.42;11.68;;;6.90;99.90;;;;;;6121450;23;20215;-54
2022/11/05 07:38:32;;;;;;;15.57;11.60;;;6.90;99.90;;;;;;6096626;23;20533;-56
2022/11/05 07:40:59;;;;;;;14.98;11.20;;;6.90;99.90;;;;;;6123305;23;20165;-56
2022/11/05 07:43:24;;;;;;;18.30;11.50;;;6.90;99.90;;;;;;6122771;23;20472;-56
2022/11/05 07:45:50;;;;;;;18.67;11.45;;;7.00;99.90;;;;;;6122186;23;20150;-56
2022/11/05 07:48:16;;;;;;;16.40;11.23;;;7.00;99.90;;;;;;6098917;23;20508;-55
2022/11/05 07:50:41;;;;;;;21.33;12.02;;;7.00;99.90;;;;;;6096892;23;20161;-55
2022/11/05 07:53:13;;;;;;;16.05;11.90;;;7.10;99.90;;;;;;6123042;23;20179;-55
2022/11/05 07:55:42;;;;;;;16.20;11.75;;;7.10;99.90;;;;;;6123079;23;20141;-56
2022/11/05 07:58:09;;;;;;;18.95;11.68;;;7.10;99.90;;;;;;6122911;23;20189;-55
2022/11/05 08:00:35;;;;;;;17.98;12.20;;;7.10;99.90;;;;;;6122522;23;20527;-55
2022/11/05 08:03:13;;;;;;;15.07;12.15;;;7.10;99.90;;;;;;6122853;23;20157;-55
2022/11/05 08:05:44;;;;;;;19.05;11.80;;;7.20;99.90;;;;;;6122846;23;20446;-55
2022/11/05 08:08:13;;;;;;;15.25;12.18;;;7.30;99.90;;;;;;6122918;23;20252;-55
2022/11/05 08:10:39;;;;;;;17.60;12.30;;;7.50;99.90;;;;;;6122649;23;20178;-54
2022/11/05 08:13:05;;;;;;;20.02;13.20;;;7.60;99.90;;;;;;6122801;23;20579;-54
2022/11/05 08:15:31;;;;;;;16.48;12.77;;;7.70;99.90;;;;;;6122571;23;20149;-55
2022/11/05 08:18:11;;;;;;;15.98;12.65;;;7.80;99.90;;;;;;6073055;23;20168;-55
2022/11/05 08:20:37;;;;;;;17.52;13.07;;;7.90;99.90;;;;;;6096819;23;20153;-55
2022/11/05 08:23:03;;;;;;;18.30;13.07;;;8.10;99.90;;;;;;6122433;23;20156;-55
2022/11/05 08:25:29;;;;;;;14.20;11.55;;;8.10;99.90;;;;;;6122837;23;20160;-56
2022/11/05 08:28:06;;;;;;;17.48;11.85;;;8.10;99.90;;;;;;6122476;23;20584;-56
2022/11/05 08:30:33;;;;;;;15.70;11.63;;;8.20;99.90;;;;;;6122577;23;20641;-54
2022/11/05 08:33:04;;;;;;;16.58;11.10;;;8.30;99.90;;;;;;6096925;23;20153;-56
2022/11/05 08:35:30;;;;;;;13.88;10.60;;;8.30;99.90;;;;;;6123378;23;20617;-55
2022/11/05 08:38:01;;;;;;;15.13;10.48;;;8.30;99.90;;;;;;6096646;23;20188;-55
2022/11/05 08:40:29;;;;;;;14.02;10.48;;;8.30;99.90;;;;;;6122887;23;20145;-56
2022/11/05 08:42:59;;;;;;;14.55;11.20;;;8.40;99.90;;;;;;6096876;23;20161;-56
2022/11/05 08:45:26;;;;;;;14.55;10.55;;;8.40;99.90;;;;;;6097147;23;20180;-58
2022/11/05 08:48:03;;;;;;;18.75;10.90;;;8.50;99.90;;;;;;6122808;23;20177;-55
2022/11/05 08:50:29;;;;;;;15.05;11.77;;;8.50;99.90;;;;;;6122617;23;20596;-55
2022/11/05 08:52:55;;;;;;;15.73;11.00;;;8.60;99.90;;;;;;6122948;23;20150;-55
2022/11/05 08:55:21;;;;;;;14.80;10.30;;;8.70;99.90;;;;;;6097074;23;20161;-55
2022/11/05 08:57:47;;;;;;;13.70;10.30;;;8.80;99.90;;;;;;6122813;23;20161;-55
2022/11/05 09:00:14;;;;;;;13.32;10.65;;;8.80;99.90;;;;;;6122874;23;20157;-55
2022/11/05 09:02:40;;;;;;;14.50;10.50;;;8.90;99.90;;;;;;6122789;23;20241;-56
2022/11/05 09:05:06;;;;;;;16.42;9.65;;;9.00;99.90;;;;;;6097356;23;20157;-56
2022/11/05 09:07:32;;;;;;;11.70;9.38;;;9.10;99.90;;;;;;6096700;23;20184;-55
2022/11/05 09:09:58;;;;;;;14.18;9.40;;;9.10;99.90;;;;;;6122744;23;20149;-56
2022/11/05 09:12:23;;;;;;;11.68;8.65;;;9.20;99.90;;;;;;6096728;23;20180;-55
2022/11/05 09:14:49;;;;;;;14.18;9.02;;;9.20;99.90;;;;;;6122797;23;20177;-55
2022/11/05 09:17:17;;;;;;;13.93;9.40;;;9.20;99.90;;;;;;6072984;23;20244;-56
2022/11/05 09:19:43;;;;;;;12.63;8.93;;;9.20;99.90;;;;;;6122750;23;20146;-55
2022/11/05 09:22:11;;;;;;;16.80;9.20;;;9.20;99.90;;;;;;6122753;23;20149;-55
2022/11/05 09:24:41;;;;;;;14.30;9.15;;;9.30;99.90;;;;;;6122652;23;20158;-55
2022/11/05 09:27:12;;;;;;;12.63;8.30;;;9.30;99.90;;;;;;6097715;23;20154;-55
2022/11/05 09:29:38;;;;;;;10.50;7.85;;;9.30;99.90;;;;;;6097595;23;20173;-55
2022/11/05 09:32:04;;;;;;;10.65;7.40;;;9.30;99.90;;;;;;6096855;23;20157;-56
2022/11/05 09:34:30;;;;;;;12.70;8.48;;;9.60;99.90;;;;;;6122667;23;20160;-56
2022/11/05 09:36:56;;;;;;;13.40;8.27;;;9.70;99.90;;;;;;6122643;23;20233;-56
2022/11/05 09:39:22;;;;;;;13.48;8.32;;;9.70;99.90;;;;;;6122992;23;20157;-56
2022/11/05 09:41:48;;;;;;;9.60;7.68;;;9.50;99.90;;;;;;6122290;23;20173;-55
2022/11/05 09:44:32;;;;;;;12.05;7.57;;;9.60;99.90;;;;;;6122209;23;20218;-56
2022/11/05 09:47:01;;;;;;;12.23;8.13;;;9.50;99.90;;;;;;6122630;23;20220;-55
2022/11/05 09:49:41;;;;;;;12.30;7.43;;;9.60;99.90;;;;;;6122371;23;20616;-55
2022/11/05 09:52:22;;;;;;;12.85;7.68;;;9.80;99.90;;;;;;6122316;23;20645;-55
2022/11/05 09:54:49;;;;;;;15.90;7.97;;;9.80;99.90;;;;;;6122317;23;20172;-55
2022/11/05 09:57:26;;;;;;;11.05;6.82;;;9.80;99.90;;;;;;6096967;23;20210;-57
2022/11/05 09:59:55;;;;;;;15.25;7.35;;;9.70;99.90;;;;;;6122498;23;20145;-55
2022/11/05 10:02:26;;;;;;;13.55;7.82;;;9.70;99.90;;;;;;6122109;23;20469;-55
2022/11/05 10:04:58;;;;;;;12.98;7.47;;;9.70;99.90;;;;;;6122208;23;20165;-56
2022/11/05 10:07:28;;;;;;;12.18;7.47;;;9.80;99.90;;;;;;6122467;23;20208;-56
2022/11/05 10:10:04;;;;;;;9.43;6.80;;;9.80;99.90;;;;;;6122504;23;20587;-54
2022/11/05 10:12:30;;;;;;;13.95;7.13;;;9.80;99.90;;;;;;6122456;23;20146;-55
2022/11/05 10:15:09;;;;;;;9.30;7.15;;;9.90;99.90;;;;;;6122026;23;20157;-54
2022/11/05 10:17:37;;;;;;;10.75;6.78;;;9.90;99.90;;;;;;6096668;23;20169;-55
2022/11/05 10:20:06;;;;;;;8.73;6.72;;;10.00;99.90;;;;;;6122796;23;20472;-55
2022/11/05 10:22:32;;;;;;;11.30;6.40;;;10.00;99.90;;;;;;6123516;23;20175;-55
2022/11/05 10:24:59;;;;;;;10.10;6.57;;;10.00;99.90;;;;;;6123465;23;20180;-57
2022/11/05 10:27:32;;;;;;;10.00;6.55;;;10.10;99.90;;;;;;6123467;23;20173;-55
2022/11/05 10:29:58;;;;;;;11.75;6.35;;;10.20;99.90;;;;;;6123512;23;20227;-55
2022/11/05 10:32:34;;;;;;;9.50;6.40;;;10.30;99.90;;;;;;6123529;23;20560;-55
2022/11/05 10:35:02;;;;;;;7.32;6.05;;;10.40;99.90;;;;;;6123479;23;20153;-55
2022/11/05 10:37:29;;;;;;;8.80;5.20;;;10.50;99.90;;;;;;6123175;23;20608;-56
2022/11/05 10:39:55;;;;;;;6.03;5.43;;;10.70;99.90;;;;;;6123507;23;20177;-56
2022/11/05 10:43:25;;;;;;;8.77;5.80;;;10.90;99.90;;;;;;6097158;23;20208;-56
2022/11/05 10:46:09;;;;;;;9.23;5.80;;;10.70;99.90;;;;;;6001468;23;20178;-55
2022/11/05 10:48:56;;;;;;;7.40;5.30;;;10.70;99.90;;;;;;6010373;23;20510;-56
2022/11/05 10:51:22;;;;;;;9.40;4.95;;;10.80;99.90;;;;;;6114897;23;20157;-55
2022/11/05 10:53:55;;;;;;;8.20;5.53;;;10.90;99.90;;;;;;6123407;23;20157;-56
2022/11/05 10:56:47;;;;;;;7.03;4.97;;;10.90;99.90;;;;;;6123742;23;20573;-56
2022/11/05 10:59:27;;;;;;;6.70;4.80;;;11.00;99.90;;;;;;6119360;23;20485;-55
2022/11/05 11:02:13;;;;;;;7.50;5.00;;;11.00;99.90;;;;;;6123431;23;20144;-56
2022/11/05 11:04:39;;;;;;;6.93;4.57;;;11.00;99.90;;;;;;6123346;23;20169;-56
2022/11/05 11:07:15;;;;;;;7.50;5.20;;;11.10;99.90;;;;;;6123443;23;20161;-56
2022/11/05 11:09:47;;;;;;;6.82;4.60;;;11.10;99.90;;;;;;6123363;23;20141;-56
2022/11/05 11:12:22;;;;;;;9.45;4.75;;;11.20;99.90;;;;;;6123484;23;20138;-55
2022/11/05 11:15:07;;;;;;;7.95;4.85;;;11.30;99.90;;;;;;6097373;23;20622;-56
2022/11/05 11:17:32;;;;;;;7.95;4.95;;;11.50;99.90;;;;;;6123328;23;20168;-56
2022/11/05 11:20:39;;;;;;;6.15;3.97;;;11.20;99.90;;;;;;6123372;23;20521;-56
2022/11/05 11:23:13;;;;;;;7.80;4.15;;;11.30;99.90;;;;;;6122298;23;20243;-56
2022/11/05 11:25:59;;;;;;;7.00;4.25;;;11.40;99.90;;;;;;6097225;23;20150;-57
2022/11/05 11:28:30;;;;;;;5.25;3.83;;;11.70;99.90;;;;;;6097360;23;20197;-56
2022/11/05 11:31:10;;;;;;;6.05;4.40;;;11.70;99.90;;;;;;6123082;23;20220;-56
2022/11/05 11:33:37;;;;;;;6.07;3.97;;;11.70;99.90;;;;;;6123176;23;20650;-56
2022/11/05 11:36:04;;;;;;;7.00;4.00;;;11.70;99.90;;;;;;6123281;23;20591;-56
2022/11/05 11:38:33;;;;;;;5.82;4.20;;;11.70;99.90;;;;;;6097435;23;20247;-56
2022/11/05 11:41:24;;;;;;;6.75;4.65;;;11.70;99.90;;;;;;6098032;23;20204;-56
2022/11/05 11:43:55;;;;;;;6.38;4.38;;;11.50;99.90;;;;;;6122653;23;20165;-56
2022/11/05 11:46:21;;;;;;;7.03;4.50;;;11.60;99.90;;;;;;6122752;23;20150;-56
2022/11/05 11:48:48;;;;;;;5.10;4.10;;;11.70;99.90;;;;;;6097303;23;20628;-56
2022/11/05 11:51:43;;;;;;;6.13;4.10;;;11.60;99.90;;;;;;6097050;23;20532;-56
2022/11/05 11:54:23;;;;;;;7.82;4.47;;;11.60;99.90;;;;;;6123067;23;20152;-56
2022/11/05 11:56:48;;;;;;;6.55;4.00;;;11.60;99.90;;;;;;6123141;23;20142;-56
2022/11/05 11:59:26;;;;;;;6.38;3.92;;;11.70;99.90;;;;;;6097273;23;20223;-56
2022/11/05 12:02:19;;;;;;;5.82;4.22;;;11.70;99.90;;;;;;6097143;23;20153;-55
2022/11/05 12:04:52;;;;;;;7.65;4.68;;;11.80;99.90;;;;;;6123084;23;20142;-56
2022/11/05 12:07:26;;;;;;;5.60;4.25;;;11.60;99.90;;;;;;6122942;23;20157;-55
2022/11/05 12:10:10;;;;;;;11.18;5.18;;;11.70;99.90;;;;;;6123123;23;20153;-56
2022/11/05 12:12:42;;;;;;;6.65;4.65;;;11.70;99.90;;;;;;6122545;23;20479;-56
2022/11/05 12:15:10;;;;;;;7.63;4.50;;;11.60;99.90;;;;;;6097088;23;20592;-55
2022/11/05 12:17:54;;;;;;;6.30;4.45;;;11.60;99.90;;;;;;6122978;23;20259;-54
2022/11/05 12:20:32;;;;;;;7.65;5.03;;;11.60;99.90;;;;;;6123024;23;20144;-56
2022/11/05 12:23:10;;;;;;;6.45;4.50;;;11.60;99.90;;;;;;6097146;23;20489;-56
2022/11/05 12:25:52;;;;;;;7.43;4.63;;;11.60;99.90;;;;;;6122873;23;20150;-56
2022/11/05 12:28:24;;;;;;;7.35;5.20;;;11.60;99.90;;;;;;6122546;23;20169;-55
2022/11/05 12:31:11;;;;;;;7.18;4.63;;;11.60;99.90;;;;;;6123010;23;20249;-54
2022/11/05 12:33:54;;;;;;;6.10;5.10;;;11.70;99.90;;;;;;6123169;23;20138;-56
2022/11/05 12:37:03;;;;;;;6.32;4.82;;;11.80;99.90;;;;;;6122675;23;20142;-56
2022/11/05 12:39:56;;;;;;;6.85;5.35;;;11.80;99.90;;;;;;6122891;23;20223;-55
2022/11/05 12:42:50;;;;;;;8.55;4.57;;;11.80;99.90;;;;;;6122004;23;20619;-56
2022/11/05 12:45:19;;;;;;;7.18;4.65;;;11.80;99.90;;;;;;6123141;23;20187;-56
2022/11/05 12:47:59;;;;;;;7.63;5.30;;;11.90;99.90;;;;;;6122732;23;20181;-56
2022/11/05 12:50:34;;;;;;;7.53;5.28;;;11.90;99.90;;;;;;6122882;23;20473;-56
2022/11/05 12:53:35;;;;;;;7.13;4.90;;;12.00;99.90;;;;;;6122961;23;20622;-56
2022/11/05 12:56:24;;;;;;;7.82;5.03;;;12.10;99.90;;;;;;6080758;23;20181;-55
2022/11/05 12:58:59;;;;;;;10.02;4.97;;;12.10;99.90;;;;;;6122889;23;20150;-56
2022/11/05 13:01:40;;;;;;;8.07;4.82;;;12.20;99.90;;;;;;6122970;23;20147;-56
2022/11/05 13:04:31;;;;;;;7.45;4.95;;;12.20;99.90;;;;;;6097041;23;20469;-56
2022/11/05 13:07:00;;;;;;;7.50;4.80;;;12.30;99.90;;;;;;6122808;23;20157;-57
2022/11/05 13:09:57;;;;;;;7.50;4.93;;;12.40;99.90;;;;;;6122304;23;20655;-56
2022/11/05 13:12:26;;;;;;;5.82;4.75;;;12.40;99.90;;;;;;6122582;23;20172;-55
2022/11/05 13:15:11;;;;;;;8.43;5.28;;;12.40;99.90;;;;;;6122746;23;20210;-57
2022/11/05 13:17:59;;;;;;;6.65;4.88;;;12.40;99.90;;;;;;6122761;23;20223;-56
2022/11/05 13:20:29;;;;;;;7.28;4.80;;;12.30;99.90;;;;;;6122832;23;20192;-56
2022/11/05 13:23:05;;;;;;;7.93;4.78;;;12.20;99.90;;;;;;6122484;23;20221;-56
2022/11/05 13:25:37;;;;;;;7.43;4.82;;;12.40;99.90;;;;;;6122790;23;20179;-56
2022/11/05 13:28:22;;;;;;;5.90;4.60;;;12.50;99.90;;;;;;6122314;23;20626;-56
2022/11/05 13:30:51;;;;;;;5.88;4.78;;;12.40;99.90;;;;;;6122654;23;20230;-56
2022/11/05 13:33:33;;;;;;;7.40;4.53;;;12.30;99.90;;;;;;6122195;23;20153;-57
2022/11/05 13:39:10;;;;;;;6.00;4.13;;;12.30;99.90;;;;;;6122417;23;20180;-56
2022/11/05 13:42:02;;;;;;;8.35;4.70;;;12.30;99.90;;;;;;6122710;23;20220;-57
2022/11/05 13:44:56;;;;;;;5.55;4.40;;;12.40;99.90;;;;;;6110592;23;20176;-57
2022/11/05 13:47:31;;;;;;;7.00;4.57;;;12.30;99.90;;;;;;6122136;23;20739;-56
2022/11/05 13:50:18;;;;;;;6.85;4.13;;;12.30;99.90;;;;;;6122633;23;20149;-55
2022/11/05 13:52:55;;;;;;;6.30;4.43;;;12.20;99.90;;;;;;6122671;23;20195;-56
2022/11/05 13:55:48;;;;;;;7.22;4.38;;;12.20;99.90;;;;;;6122582;23;20145;-56
2022/11/05 13:58:50;;;;;;;6.22;4.30;;;12.30;99.90;;;;;;6122598;23;20155;-56
2022/11/05 14:01:35;;;;;;;7.10;4.78;;;12.30;99.90;;;;;;6122521;23;20152;-56
2022/11/05 14:04:01;;;;;;;6.53;4.40;;;12.20;99.90;;;;;;6122345;23;20212;-56
2022/11/05 14:06:45;;;;;;;6.28;4.55;;;12.20;99.90;;;;;;6096339;23;20157;-56
2022/11/05 14:09:19;;;;;;;7.15;4.65;;;12.10;99.90;;;;;;6072610;23;20184;-56
2022/11/05 14:11:52;;;;;;;5.70;4.65;;;12.10;99.90;;;;;;6122158;23;20458;-56
2022/11/05 14:14:26;;;;;;;7.53;4.55;;;12.10;99.90;;;;;;6096361;23;20153;-56
2022/11/05 14:16:54;;;;;;;6.28;4.47;;;12.20;99.90;;;;;;6122389;23;20146;-56
2022/11/05 14:19:20;;;;;;;7.15;4.68;;;12.30;99.90;;;;;;6122357;23;20150;-56
2022/11/05 14:21:56;;;;;;;11.60;5.20;;;12.30;99.90;;;;;;6122291;23;20153;-55
2022/11/05 14:24:22;;;;;;;5.35;4.47;;;12.20;99.90;;;;;;6122241;23;20202;-57
2022/11/05 14:27:00;;;;;;;5.78;4.65;;;12.00;99.90;;;;;;6122275;23;20149;-54
2022/11/05 14:29:41;;;;;;;6.60;4.30;;;11.90;99.90;;;;;;6122116;23;20184;-56
2022/11/05 14:32:16;;;;;;;8.80;4.97;;;12.00;99.90;;;;;;6121902;23;20541;-56
2022/11/05 14:35:02;;;;;;;6.95;5.00;;;12.00;99.90;;;;;;6095949;23;20192;-56
2022/11/05 14:37:35;;;;;;;8.48;4.85;;;11.90;99.90;;;;;;6122201;23;20229;-56
2022/11/05 14:40:20;;;;;;;6.55;4.70;;;11.90;99.90;;;;;;6122186;23;20178;-55
2022/11/05 14:42:59;;;;;;;9.77;5.00;;;11.90;99.90;;;;;;6122041;23;20177;-56
2022/11/05 14:45:35;;;;;;;8.60;5.43;;;11.90;99.90;;;;;;6122163;23;20154;-56
2022/11/05 14:48:04;;;;;;;8.23;4.90;;;11.80;99.90;;;;;;6121959;23;20600;-55
2022/11/05 14:50:41;;;;;;;7.20;4.88;;;11.80;99.90;;;;;;6122051;23;20149;-56
2022/11/05 14:53:25;;;;;;;8.45;5.53;;;11.80;99.90;;;;;;6096015;23;20158;-56
2022/11/05 14:56:06;;;;;;;7.53;5.22;;;11.80;99.90;;;;;;6122209;23;20146;-55
2022/11/05 14:58:37;;;;;;;11.63;5.47;;;11.80;99.90;;;;;;6122060;23;20145;-55
2022/11/05 15:01:06;;;;;;;8.48;6.13;;;11.80;99.90;;;;;;6122014;23;20195;-56
2022/11/05 15:03:45;;;;;;;10.15;6.50;;;11.70;99.90;;;;;;6121927;23;20153;-56
2022/11/05 15:06:30;;;;;;;9.23;5.55;;;11.70;99.90;;;;;;6123087;23;20141;-56
2022/11/05 15:09:14;;;;;;;7.70;5.45;;;11.80;99.90;;;;;;6097361;23;20173;-56
2022/11/05 15:11:49;;;;;;;8.50;5.47;;;11.80;99.90;;;;;;6123015;23;20153;-56
2022/11/05 15:14:35;;;;;;;10.18;5.28;;;11.80;99.90;;;;;;6123499;23;20149;-55
2022/11/05 15:17:28;;;;;;;8.27;5.10;;;11.80;99.90;;;;;;6097347;23;20237;-56
2022/11/05 15:20:05;;;;;;;9.40;4.90;;;11.70;99.90;;;;;;6123004;23;20145;-55
2022/11/05 15:22:42;;;;;;;9.68;5.25;;;11.70;99.90;;;;;;6073505;23;20246;-55
2022/11/05 15:25:16;;;;;;;6.00;4.80;;;11.70;99.90;;;;;;6123378;23;20145;-55
2022/11/05 15:27:47;;;;;;;8.40;5.18;;;11.70;99.90;;;;;;6123070;23;20206;-56
2022/11/05 15:30:15;;;;;;;9.35;5.18;;;11.70;99.90;;;;;;6123282;23;20499;-55
2022/11/05 15:32:41;;;;;;;6.80;4.68;;;11.50;99.90;;;;;;6123191;23;20150;-56
2022/11/05 15:35:23;;;;;;;8.90;5.70;;;11.60;99.90;;;;;;6097401;23;20298;-55
2022/11/05 15:37:50;;;;;;;8.60;5.95;;;11.60;99.90;;;;;;6123253;23;20142;-55
2022/11/05 15:40:22;;;;;;;7.63;5.55;;;11.60;99.90;;;;;;6123294;23;20224;-54
2022/11/05 15:43:16;;;;;;;6.57;5.50;;;11.60;99.90;;;;;;6123136;23;20153;-55
2022/11/05 15:45:43;;;;;;;9.68;5.88;;;11.60;99.90;;;;;;6123276;23;20172;-55
2022/11/05 15:48:13;;;;;;;9.32;5.20;;;11.50;99.90;;;;;;6123264;23;20204;-55
2022/11/05 15:50:39;;;;;;;9.68;5.78;;;11.60;99.90;;;;;;6097169;23;20161;-56
2022/11/05 15:53:16;;;;;;;9.10;5.38;;;11.50;99.90;;;;;;6072729;23;20256;-56
2022/11/05 15:55:55;;;;;;;8.80;4.90;;;11.40;99.90;;;;;;6097271;23;20172;-55
2022/11/05 15:58:21;;;;;;;10.02;5.07;;;11.50;99.90;;;;;;6122980;23;20239;-55
2022/11/05 16:00:48;;;;;;;7.63;4.80;;;11.50;99.90;;;;;;6096967;23;20193;-55
2022/11/05 16:03:21;;;;;;;6.50;4.90;;;11.40;99.90;;;;;;6123173;23;20160;-54
2022/11/05 16:05:47;;;;;;;7.05;5.32;;;11.30;99.90;;;;;;6122838;23;20138;-55
2022/11/05 16:08:20;;;;;;;10.30;6.93;;;11.40;99.90;;;;;;6122679;23;20638;-54
2022/11/05 16:10:48;;;;;;;8.00;5.57;;;11.30;99.90;;;;;;6122754;23;20611;-56
2022/11/05 16:13:40;;;;;;;7.82;5.07;;;11.10;99.90;;;;;;6123021;23;20157;-56
2022/11/05 16:16:24;;;;;;;8.50;5.15;;;11.20;99.90;;;;;;6092285;23;20260;-55
2022/11/05 16:18:50;;;;;;;7.68;5.78;;;11.20;99.90;;;;;;6123015;23;20142;-56
2022/11/05 16:21:18;;;;;;;9.45;5.25;;;11.20;99.90;;;;;;6122640;23;20158;-55
2022/11/05 16:23:45;;;;;;;8.23;5.50;;;11.10;99.90;;;;;;6123011;23;20145;-55
2022/11/05 16:26:32;;;;;;;9.15;5.40;;;11.20;99.90;;;;;;6123037;23;20280;-55
2022/11/05 16:29:01;;;;;;;8.77;5.45;;;11.30;99.90;;;;;;6122870;23;20173;-54
2022/11/05 16:31:31;;;;;;;10.93;5.20;;;11.20;99.90;;;;;;6122879;23;20161;-55
2022/11/05 16:33:58;;;;;;;6.78;5.00;;;11.20;99.90;;;;;;6097378;23;20244;-55
2022/11/05 16:36:27;;;;;;;7.72;5.47;;;11.10;99.90;;;;;;6097145;23;20650;-55
2022/11/05 16:38:53;;;;;;;9.30;5.35;;;11.20;99.90;;;;;;6122953;23;20199;-55
2022/11/05 16:41:20;;;;;;;7.80;4.97;;;11.20;99.90;;;;;;6122961;23;20150;-55
2022/11/05 16:43:51;;;;;;;11.60;5.63;;;11.30;99.90;;;;;;6097199;23;20172;-55
2022/11/05 16:46:16;;;;;;;8.00;5.00;;;11.30;99.90;;;;;;6122968;23;20673;-54
2022/11/05 16:48:42;;;;;;;6.88;5.20;;;11.20;99.90;;;;;;6122871;23;20268;-55
2022/11/05 16:51:09;;;;;;;6.28;4.88;;;11.20;99.90;;;;;;6122439;23;20165;-55
2022/11/05 16:53:35;;;;;;;5.63;4.63;;;11.10;99.90;;;;;;6122888;23;20158;-55
2022/11/05 16:56:02;;;;;;;16.02;11.18;;;11.10;99.90;;;;;;6097180;23;20184;-55
2022/11/05 16:58:28;;;;;;;7.38;5.45;;;11.10;99.90;;;;;;6096986;23;20512;-55
2022/11/05 17:01:04;;;;;;;8.13;4.80;;;11.10;99.90;;;;;;6097304;23;20150;-56
2022/11/05 17:03:30;;;;;;;7.68;4.45;;;11.20;99.90;;;;;;6097088;23;20236;-55
2022/11/05 17:05:55;;;;;;;8.48;5.15;;;11.20;99.90;;;;;;6122740;23;20189;-55
2022/11/05 17:08:21;;;;;;;6.25;4.20;;;11.10;99.90;;;;;;6122802;23;20216;-54
2022/11/05 17:10:47;;;;;;;8.55;4.47;;;11.10;99.90;;;;;;6122811;23;20161;-55